Time;durP1;ratioP1;P1;durP2;ratioP2;P2;SDS_P1;SDS_P2;PMS_P1;PMS_P2;Temp;Humidity;BMP_temperature;BMP_pressure;BME280_temperature;BME280_humidity;BME280_pressure;Samples;Min_cycle;Max_cycle;Signal;HPM_P1;HPM_P2
2024/01/11 00:00:44;;;;;;;11.65;1.90;;;;;;;;;;6285090;22;20026;-46
2024/01/11 00:03:12;;;;;;;12.25;1.40;;;;;;;;;;6273256;22;20019;-45
2024/01/11 00:05:39;;;;;;;7.20;1.67;;;;;;;;;;6278346;22;20081;-45
2024/01/11 00:08:07;;;;;;;12.27;1.60;;;;;;;;;;6271545;22;20019;-45
2024/01/11 00:10:35;;;;;;;8.52;1.75;;;;;;;;;;6272850;22;20019;-47
2024/01/11 00:13:06;;;;;;;5.97;1.35;;;;;;;;;;6249172;22;20023;-44
2024/01/11 00:15:33;;;;;;;9.00;1.48;;;;;;;;;;6275019;22;20106;-46
2024/01/11 00:18:03;;;;;;;8.10;2.00;;;;;;;;;;6275574;22;20082;-45
2024/01/11 00:20:31;;;;;;;8.50;1.23;;;;;;;;;;6271744;22;20255;-46
2024/01/11 00:22:59;;;;;;;7.88;1.40;;;;;;;;;;6251287;22;20511;-46
2024/01/11 00:25:27;;;;;;;8.80;1.50;;;;;;;;;;6270000;22;20015;-44
2024/01/11 00:27:54;;;;;;;6.57;1.52;;;;;;;;;;6277294;22;20018;-44
2024/01/11 00:30:23;;;;;;;14.10;2.00;;;;;;;;;;6274797;22;20064;-45
2024/01/11 00:32:51;;;;;;;7.30;1.27;;;;;;;;;;6234281;22;20083;-45
2024/01/11 00:35:20;;;;;;;7.93;1.45;;;;;;;;;;6238949;22;20015;-47
2024/01/11 00:37:49;;;;;;;10.13;1.60;;;;;;;;;;6269070;22;20042;-45
2024/01/11 00:40:17;;;;;;;9.73;1.58;;;;;;;;;;6273560;22;20476;-45
2024/01/11 00:42:44;;;;;;;5.97;2.13;;;;;;;;;;6274072;22;20406;-44
2024/01/11 00:45:12;;;;;;;7.90;1.63;;;;;;;;;;6271462;22;20031;-44
2024/01/11 00:47:40;;;;;;;12.15;1.80;;;;;;;;;;6272279;22;20019;-45
2024/01/11 00:50:09;;;;;;;5.32;0.98;;;;;;;;;;6279075;22;20019;-45
2024/01/11 00:52:39;;;;;;;8.30;1.58;;;;;;;;;;6270681;22;20019;-44
2024/01/11 00:55:07;;;;;;;11.47;1.50;;;;;;;;;;6277421;22;20016;-44
2024/01/11 00:57:35;;;;;;;10.13;1.80;;;;;;;;;;6275838;22;20023;-44
2024/01/11 01:00:03;;;;;;;12.90;2.28;;;;;;;;;;6275447;22;20023;-45
2024/01/11 01:02:31;;;;;;;5.03;1.00;;;;;;;;;;6278756;22;20042;-44
2024/01/11 01:05:00;;;;;;;10.70;1.70;;;;;;;;;;6279772;22;20027;-47
2024/01/11 01:07:28;;;;;;;9.07;1.43;;;;;;;;;;6271615;22;20026;-44
2024/01/11 01:09:56;;;;;;;9.73;1.35;;;;;;;;;;6280429;22;20020;-44
2024/01/11 01:12:25;;;;;;;6.53;1.45;;;;;;;;;;6270469;22;20015;-44
2024/01/11 01:14:52;;;;;;;13.43;1.70;;;;;;;;;;6280395;22;20019;-44
2024/01/11 01:17:20;;;;;;;8.98;1.60;;;;;;;;;;6271138;22;20389;-44
2024/01/11 01:19:48;;;;;;;10.60;1.70;;;;;;;;;;6278487;22;20042;-44
2024/01/11 01:22:15;;;;;;;9.43;2.03;;;;;;;;;;6273876;22;20024;-45
2024/01/11 01:24:43;;;;;;;8.48;1.65;;;;;;;;;;6278977;22;20042;-43
2024/01/11 01:27:12;;;;;;;8.38;1.25;;;;;;;;;;6277251;22;20031;-44
2024/01/11 01:29:40;;;;;;;10.65;2.60;;;;;;;;;;6274529;22;20011;-44
2024/01/11 01:32:08;;;;;;;6.13;1.20;;;;;;;;;;6270799;22;20266;-46
2024/01/11 01:34:36;;;;;;;6.05;1.08;;;;;;;;;;6209864;22;20094;-45
2024/01/11 01:37:04;;;;;;;8.85;1.25;;;;;;;;;;6268063;22;20053;-45
2024/01/11 01:39:31;;;;;;;9.82;1.63;;;;;;;;;;6276059;22;20046;-45
2024/01/11 01:41:59;;;;;;;7.45;1.33;;;;;;;;;;6276810;22;20441;-45
2024/01/11 01:44:29;;;;;;;9.30;1.50;;;;;;;;;;6274240;22;20073;-45
2024/01/11 01:46:57;;;;;;;7.10;1.20;;;;;;;;;;6275515;22;20019;-45
2024/01/11 01:49:25;;;;;;;11.50;2.15;;;;;;;;;;6276204;22;20085;-44
2024/01/11 01:51:53;;;;;;;7.38;1.42;;;;;;;;;;6279995;22;20027;-45
2024/01/11 01:54:22;;;;;;;9.10;1.60;;;;;;;;;;6274186;22;20107;-46
2024/01/11 01:56:49;;;;;;;7.63;1.30;;;;;;;;;;6270615;22;20069;-44
2024/01/11 01:59:19;;;;;;;7.60;1.50;;;;;;;;;;6279015;22;20027;-44
2024/01/11 02:01:49;;;;;;;15.43;1.60;;;;;;;;;;6280884;22;20019;-44
2024/01/11 02:04:17;;;;;;;9.45;1.40;;;;;;;;;;6267948;22;20027;-44
2024/01/11 02:06:45;;;;;;;11.88;1.90;;;;;;;;;;6278988;22;20015;-44
2024/01/11 02:09:14;;;;;;;9.50;1.57;;;;;;;;;;6272792;22;20545;-46
2024/01/11 02:11:42;;;;;;;9.27;1.60;;;;;;;;;;6279839;22;20019;-45
2024/01/11 02:14:11;;;;;;;11.05;1.70;;;;;;;;;;6243802;22;20056;-45
2024/01/11 02:16:42;;;;;;;9.13;1.30;;;;;;;;;;6267656;22;20122;-44
2024/01/11 02:19:12;;;;;;;8.75;1.52;;;;;;;;;;6273639;22;20022;-45
2024/01/11 02:21:41;;;;;;;9.03;2.10;;;;;;;;;;6276500;22;20043;-44
2024/01/11 02:24:10;;;;;;;7.38;1.35;;;;;;;;;;6280962;22;20015;-45
2024/01/11 02:26:58;;;;;;;8.43;1.80;;;;;;;;;;6258421;22;20026;-44
2024/01/11 02:29:26;;;;;;;10.18;1.40;;;;;;;;;;6282803;22;20110;-44
2024/01/11 02:31:53;;;;;;;7.97;1.40;;;;;;;;;;6284458;22;20023;-44
2024/01/11 02:34:21;;;;;;;11.40;1.70;;;;;;;;;;6210312;22;20699;-45
2024/01/11 02:36:50;;;;;;;10.73;1.77;;;;;;;;;;6280733;22;20396;-46
2024/01/11 02:39:20;;;;;;;12.30;1.70;;;;;;;;;;6279183;22;20098;-45
2024/01/11 02:41:48;;;;;;;14.57;1.63;;;;;;;;;;6280466;22;20020;-45
2024/01/11 02:44:16;;;;;;;11.40;1.67;;;;;;;;;;6261148;22;20457;-45
2024/01/11 02:46:44;;;;;;;10.40;1.23;;;;;;;;;;6281878;22;20015;-44
2024/01/11 02:49:11;;;;;;;10.32;2.00;;;;;;;;;;6289388;22;20019;-45
2024/01/11 02:51:39;;;;;;;13.82;1.73;;;;;;;;;;6262287;22;20551;-44
2024/01/11 02:54:07;;;;;;;8.70;1.00;;;;;;;;;;6284173;22;20024;-44
2024/01/11 02:56:36;;;;;;;18.27;2.13;;;;;;;;;;6257686;22;20085;-45
2024/01/11 02:59:04;;;;;;;10.00;2.13;;;;;;;;;;6238912;22;20016;-44
2024/01/11 03:01:32;;;;;;;10.95;1.50;;;;;;;;;;6251366;22;20019;-45
2024/01/11 03:04:00;;;;;;;7.60;1.75;;;;;;;;;;6254522;22;20510;-46
2024/01/11 03:06:27;;;;;;;12.85;2.78;;;;;;;;;;6248278;22;20023;-44
2024/01/11 03:08:55;;;;;;;10.35;2.20;;;;;;;;;;6260165;22;20023;-44
2024/01/11 03:11:25;;;;;;;7.53;1.50;;;;;;;;;;6201191;22;20482;-45
2024/01/11 03:13:55;;;;;;;11.23;2.10;;;;;;;;;;6251361;22;20027;-44
2024/01/11 03:16:23;;;;;;;8.82;1.15;;;;;;;;;;6253496;22;20050;-44
2024/01/11 03:18:51;;;;;;;14.25;2.05;;;;;;;;;;6256149;22;20027;-44
2024/01/11 03:21:19;;;;;;;11.77;1.42;;;;;;;;;;6236995;22;20454;-44
2024/01/11 03:23:46;;;;;;;11.27;1.67;;;;;;;;;;6253831;22;20019;-46
2024/01/11 03:26:14;;;;;;;12.05;1.60;;;;;;;;;;6256704;22;20015;-44
2024/01/11 03:28:42;;;;;;;9.65;1.48;;;;;;;;;;6255521;22;20043;-44
2024/01/11 03:31:12;;;;;;;8.82;1.70;;;;;;;;;;6252914;22;20083;-45
2024/01/11 03:33:48;;;;;;;6.43;1.55;;;;;;;;;;6216478;22;20015;-45
2024/01/11 03:36:16;;;;;;;8.20;1.40;;;;;;;;;;6252242;22;20034;-44
2024/01/11 03:38:43;;;;;;;7.72;1.65;;;;;;;;;;6248201;22;20020;-44
2024/01/11 03:41:11;;;;;;;10.35;1.30;;;;;;;;;;6256309;22;20019;-44
2024/01/11 03:43:39;;;;;;;8.82;1.30;;;;;;;;;;6254924;22;20518;-45
2024/01/11 03:46:07;;;;;;;10.13;1.70;;;;;;;;;;6255057;22;20115;-44
2024/01/11 03:48:36;;;;;;;10.47;1.97;;;;;;;;;;6255350;22;20011;-44
2024/01/11 03:51:04;;;;;;;11.48;1.70;;;;;;;;;;6252434;22;20061;-44
2024/01/11 03:53:35;;;;;;;14.23;1.63;;;;;;;;;;6255289;22;20050;-45
2024/01/11 03:56:03;;;;;;;6.53;1.48;;;;;;;;;;6247544;22;20024;-43
2024/01/11 03:58:32;;;;;;;8.60;1.67;;;;;;;;;;6270091;22;20019;-44
2024/01/11 04:01:00;;;;;;;8.40;1.43;;;;;;;;;;6284082;22;20090;-48
2024/01/11 04:03:28;;;;;;;16.27;1.90;;;;;;;;;;6283064;22;20517;-45
2024/01/11 04:05:58;;;;;;;8.18;1.20;;;;;;;;;;6284007;22;20449;-46
2024/01/11 04:08:26;;;;;;;12.27;1.92;;;;;;;;;;6263016;22;20489;-45
2024/01/11 04:10:53;;;;;;;10.15;1.65;;;;;;;;;;6282280;22;20019;-46
2024/01/11 04:13:25;;;;;;;8.90;1.80;;;;;;;;;;6285152;22;20452;-46
2024/01/11 04:15:53;;;;;;;11.45;1.60;;;;;;;;;;6283756;22;20093;-44
2024/01/11 04:18:21;;;;;;;11.43;1.50;;;;;;;;;;6285134;22;20022;-45
2024/01/11 04:20:48;;;;;;;9.93;2.25;;;;;;;;;;6287683;22;20015;-44
2024/01/11 04:23:17;;;;;;;10.95;1.83;;;;;;;;;;6281554;22;20018;-45
2024/01/11 04:25:45;;;;;;;7.80;1.67;;;;;;;;;;6283456;22;20072;-44
2024/01/11 04:28:13;;;;;;;13.80;2.20;;;;;;;;;;6279270;22;20510;-45
2024/01/11 04:30:41;;;;;;;6.10;1.48;;;;;;;;;;6287572;22;20015;-44
2024/01/11 04:33:09;;;;;;;8.38;1.83;;;;;;;;;;6247884;22;20019;-44
2024/01/11 04:35:36;;;;;;;7.13;1.60;;;;;;;;;;6250858;22;20020;-44
2024/01/11 04:38:04;;;;;;;8.97;1.20;;;;;;;;;;6283120;22;20401;-45
2024/01/11 04:40:33;;;;;;;6.68;1.30;;;;;;;;;;6286511;22;20038;-44
2024/01/11 04:43:01;;;;;;;9.10;1.83;;;;;;;;;;6287763;22;20033;-45
2024/01/11 04:45:29;;;;;;;16.17;1.70;;;;;;;;;;6284423;22;20493;-45
2024/01/11 04:47:57;;;;;;;9.90;1.45;;;;;;;;;;6285734;22;20011;-44
2024/01/11 04:50:25;;;;;;;8.60;1.33;;;;;;;;;;6251561;22;20098;-45
2024/01/11 04:52:52;;;;;;;9.90;1.40;;;;;;;;;;6257684;22;20019;-45
2024/01/11 04:55:22;;;;;;;9.98;1.25;;;;;;;;;;6285638;22;20406;-46
2024/01/11 04:57:51;;;;;;;8.90;1.77;;;;;;;;;;6286079;22;20023;-45
2024/01/11 05:00:19;;;;;;;12.68;1.95;;;;;;;;;;6282455;22;20015;-45
2024/01/11 05:02:47;;;;;;;6.97;1.60;;;;;;;;;;6290227;22;20094;-44
2024/01/11 05:05:15;;;;;;;9.95;1.73;;;;;;;;;;6281589;22;20015;-45
2024/01/11 05:07:42;;;;;;;9.82;1.60;;;;;;;;;;6288086;22;20033;-45
2024/01/11 05:10:10;;;;;;;12.93;2.20;;;;;;;;;;6285532;22;20015;-46
2024/01/11 05:12:38;;;;;;;9.27;1.92;;;;;;;;;;6261909;22;20724;-45
2024/01/11 05:15:08;;;;;;;10.87;1.93;;;;;;;;;;6283645;22;20019;-44
2024/01/11 05:17:36;;;;;;;12.45;1.90;;;;;;;;;;6288294;22;20018;-45
2024/01/11 05:20:05;;;;;;;11.27;1.70;;;;;;;;;;6287936;22;20019;-44
2024/01/11 05:22:33;;;;;;;13.65;2.75;;;;;;;;;;6268928;22;20026;-47
2024/01/11 05:25:01;;;;;;;7.88;2.05;;;;;;;;;;6289021;22;20081;-45
2024/01/11 05:27:29;;;;;;;9.17;1.87;;;;;;;;;;6258393;22;20377;-45
2024/01/11 05:29:57;;;;;;;8.05;1.52;;;;;;;;;;6282452;22;20526;-45
2024/01/11 05:32:26;;;;;;;9.77;2.15;;;;;;;;;;6251245;22;20080;-44
2024/01/11 05:34:54;;;;;;;10.60;1.70;;;;;;;;;;6253644;22;20026;-45
2024/01/11 05:37:22;;;;;;;13.38;1.92;;;;;;;;;;6282462;22;20073;-44
2024/01/11 05:39:50;;;;;;;10.30;1.80;;;;;;;;;;6286169;22;20045;-44
2024/01/11 05:42:17;;;;;;;12.70;1.58;;;;;;;;;;6288715;22;20015;-45
2024/01/11 05:44:45;;;;;;;11.73;1.65;;;;;;;;;;6285429;22;20015;-45
2024/01/11 05:47:14;;;;;;;8.52;2.00;;;;;;;;;;6288011;22;20022;-44
2024/01/11 05:49:43;;;;;;;9.15;1.90;;;;;;;;;;6278714;22;20829;-44
2024/01/11 05:52:10;;;;;;;8.67;1.43;;;;;;;;;;6268912;22;20041;-46
2024/01/11 05:54:38;;;;;;;7.07;1.42;;;;;;;;;;6280703;22;20387;-45
2024/01/11 05:57:07;;;;;;;10.77;1.23;;;;;;;;;;6268783;22;20476;-45
2024/01/11 05:59:35;;;;;;;9.80;1.45;;;;;;;;;;6229147;22;20050;-45
2024/01/11 06:02:02;;;;;;;9.68;1.88;;;;;;;;;;6242034;22;20016;-43
2024/01/11 06:04:32;;;;;;;9.83;1.80;;;;;;;;;;6248525;22;20031;-44
2024/01/11 06:07:01;;;;;;;9.02;2.10;;;;;;;;;;6215837;22;20019;-44
2024/01/11 06:09:29;;;;;;;10.73;2.08;;;;;;;;;;6253891;22;20019;-47
2024/01/11 06:11:57;;;;;;;8.23;1.42;;;;;;;;;;6243528;22;20015;-44
2024/01/11 06:14:24;;;;;;;7.15;1.50;;;;;;;;;;6248263;22;20473;-44
2024/01/11 06:16:53;;;;;;;10.33;2.13;;;;;;;;;;6247152;22;20020;-45
2024/01/11 06:19:21;;;;;;;8.27;1.75;;;;;;;;;;6249384;22;20019;-44
2024/01/11 06:21:49;;;;;;;15.73;1.92;;;;;;;;;;6254052;22;20012;-44
2024/01/11 06:24:18;;;;;;;8.77;1.67;;;;;;;;;;6215973;22;20834;-44
2024/01/11 06:26:46;;;;;;;8.95;1.90;;;;;;;;;;6244077;22;20838;-44
2024/01/11 06:29:13;;;;;;;12.40;2.10;;;;;;;;;;6246813;22;20514;-45
2024/01/11 06:31:41;;;;;;;8.18;1.65;;;;;;;;;;6216757;22;20046;-44
2024/01/11 06:34:09;;;;;;;8.73;1.88;;;;;;;;;;6189348;22;20532;-44
2024/01/11 06:36:36;;;;;;;10.15;1.45;;;;;;;;;;6239488;22;20024;-43
2024/01/11 06:39:05;;;;;;;9.30;2.05;;;;;;;;;;6252929;22;20016;-44
2024/01/11 06:41:34;;;;;;;7.93;1.60;;;;;;;;;;6248213;22;20012;-44
2024/01/11 06:44:02;;;;;;;11.88;1.45;;;;;;;;;;6250361;22;20016;-44
2024/01/11 06:46:31;;;;;;;8.98;1.70;;;;;;;;;;6242124;22;20011;-44
2024/01/11 06:48:58;;;;;;;9.23;1.63;;;;;;;;;;6212896;22;20019;-44
2024/01/11 06:51:26;;;;;;;12.30;1.92;;;;;;;;;;6248441;22;20020;-44
2024/01/11 06:53:54;;;;;;;10.67;2.07;;;;;;;;;;6215813;22;20559;-46
2024/01/11 06:56:22;;;;;;;5.60;1.40;;;;;;;;;;6250407;22;20435;-44
2024/01/11 06:58:52;;;;;;;10.63;1.60;;;;;;;;;;6256099;22;20071;-44
2024/01/11 07:01:19;;;;;;;10.07;1.58;;;;;;;;;;6274249;22;20087;-46
2024/01/11 07:03:47;;;;;;;8.55;1.70;;;;;;;;;;6270974;22;20103;-46
2024/01/11 07:06:15;;;;;;;14.03;2.30;;;;;;;;;;6279554;22;20532;-44
2024/01/11 07:08:43;;;;;;;10.32;1.70;;;;;;;;;;6251890;22;20592;-43
2024/01/11 07:11:12;;;;;;;7.28;1.80;;;;;;;;;;6271616;22;20082;-45
2024/01/11 07:13:39;;;;;;;9.65;1.80;;;;;;;;;;6241177;22;20047;-44
2024/01/11 07:16:08;;;;;;;7.35;1.77;;;;;;;;;;6272084;22;20524;-45
2024/01/11 07:18:40;;;;;;;12.13;1.97;;;;;;;;;;6286212;22;20039;-44
2024/01/11 07:21:08;;;;;;;9.05;1.80;;;;;;;;;;6277161;22;20095;-49
2024/01/11 07:23:37;;;;;;;7.95;1.27;;;;;;;;;;6287819;22;20061;-44
2024/01/11 07:26:05;;;;;;;10.38;1.77;;;;;;;;;;6255099;22;20454;-44
2024/01/11 07:28:32;;;;;;;7.20;1.42;;;;;;;;;;6279995;22;20033;-45
2024/01/11 07:31:00;;;;;;;5.53;1.30;;;;;;;;;;6282320;22;20454;-44
2024/01/11 07:33:29;;;;;;;7.00;1.30;;;;;;;;;;6204851;22;20102;-46
2024/01/11 07:35:58;;;;;;;11.02;1.83;;;;;;;;;;6252432;22;20085;-44
2024/01/11 07:38:26;;;;;;;9.38;1.52;;;;;;;;;;6268715;22;20023;-45
2024/01/11 07:40:55;;;;;;;9.48;1.40;;;;;;;;;;6277470;22;20015;-44
2024/01/11 07:43:23;;;;;;;6.90;1.53;;;;;;;;;;6278220;22;20016;-45
2024/01/11 07:45:58;;;;;;;5.35;0.80;;;;;;;;;;6273773;22;20332;-44
2024/01/11 07:48:26;;;;;;;11.45;2.83;;;;;;;;;;6286058;22;20721;-44
2024/01/11 07:50:55;;;;;;;4.75;1.00;;;;;;;;;;6280046;22;20597;-45
2024/01/11 07:53:23;;;;;;;9.93;1.27;;;;;;;;;;6285097;22;20015;-47
2024/01/11 07:55:51;;;;;;;12.27;1.57;;;;;;;;;;6280871;22;20019;-47
2024/01/11 07:58:20;;;;;;;8.75;1.90;;;;;;;;;;6270129;22;20469;-44
2024/01/11 08:00:48;;;;;;;10.00;1.35;;;;;;;;;;6278221;22;20484;-44
2024/01/11 08:03:16;;;;;;;8.57;1.02;;;;;;;;;;6278095;22;20019;-45
2024/01/11 08:05:44;;;;;;;8.30;0.98;;;;;;;;;;6271831;22;20011;-45
2024/01/11 08:08:13;;;;;;;12.30;1.20;;;;;;;;;;6269646;22;20105;-45
2024/01/11 08:10:41;;;;;;;6.07;0.80;;;;;;;;;;6280389;22;20470;-45
2024/01/11 08:13:09;;;;;;;8.05;1.27;;;;;;;;;;6279610;22;20022;-45
2024/01/11 08:15:38;;;;;;;7.72;1.55;;;;;;;;;;6285039;22;20023;-49
2024/01/11 08:18:06;;;;;;;9.38;1.23;;;;;;;;;;6256794;22;20561;-46
2024/01/11 08:20:34;;;;;;;14.27;1.90;;;;;;;;;;6283772;22;20034;-44
2024/01/11 08:23:03;;;;;;;5.50;0.63;;;;;;;;;;6281563;22;20015;-45
2024/01/11 08:25:32;;;;;;;11.18;1.00;;;;;;;;;;6283555;22;20016;-45
2024/01/11 08:28:02;;;;;;;4.82;1.20;;;;;;;;;;6277746;22;20019;-44
2024/01/11 08:30:30;;;;;;;10.13;1.10;;;;;;;;;;6285472;22;20015;-44
2024/01/11 08:32:58;;;;;;;10.33;1.20;;;;;;;;;;6246820;22;20106;-45
2024/01/11 08:35:27;;;;;;;6.22;1.00;;;;;;;;;;6245384;22;20084;-45
2024/01/11 08:37:55;;;;;;;6.45;0.82;;;;;;;;;;6275117;22;20077;-44
2024/01/11 08:40:23;;;;;;;7.35;1.20;;;;;;;;;;6285209;22;20054;-44
2024/01/11 08:42:52;;;;;;;7.63;0.90;;;;;;;;;;6279440;22;20026;-45
2024/01/11 08:45:20;;;;;;;7.87;0.97;;;;;;;;;;6283642;22;20090;-44
2024/01/11 08:47:48;;;;;;;10.75;1.30;;;;;;;;;;6248217;22;20466;-44
2024/01/11 08:50:17;;;;;;;8.02;0.90;;;;;;;;;;6279453;22;20026;-44
2024/01/11 08:52:50;;;;;;;9.80;0.90;;;;;;;;;;6271771;22;20434;-43
2024/01/11 08:55:18;;;;;;;11.30;1.45;;;;;;;;;;6282974;22;20019;-43
2024/01/11 08:57:47;;;;;;;5.70;0.70;;;;;;;;;;6280991;22;20436;-44
2024/01/11 09:00:17;;;;;;;6.43;0.85;;;;;;;;;;6280668;22;20016;-44
2024/01/11 09:02:46;;;;;;;6.00;0.73;;;;;;;;;;6282840;22;20073;-44
2024/01/11 09:05:15;;;;;;;12.05;1.45;;;;;;;;;;6277292;22;20069;-44
2024/01/11 09:07:43;;;;;;;5.97;0.98;;;;;;;;;;6258503;22;20102;-42
2024/01/11 09:10:11;;;;;;;7.70;1.20;;;;;;;;;;6279730;22;20025;-43
2024/01/11 09:12:39;;;;;;;5.45;1.02;;;;;;;;;;6284766;22;20022;-44
2024/01/11 09:15:07;;;;;;;6.57;1.00;;;;;;;;;;6281899;22;20019;-44
2024/01/11 09:17:37;;;;;;;4.90;0.63;;;;;;;;;;6284954;22;20018;-44
2024/01/11 09:20:05;;;;;;;9.98;1.25;;;;;;;;;;6283864;22;20082;-43
2024/01/11 09:22:33;;;;;;;6.40;0.80;;;;;;;;;;6281697;22;20011;-45
2024/01/11 09:25:01;;;;;;;9.88;1.10;;;;;;;;;;6273938;22;20015;-46
2024/01/11 09:27:28;;;;;;;6.20;0.68;;;;;;;;;;6277285;22;20041;-44
2024/01/11 09:29:56;;;;;;;7.63;1.30;;;;;;;;;;6274277;22;20859;-44
2024/01/11 09:32:25;;;;;;;6.72;0.60;;;;;;;;;;6223238;22;20361;-44
2024/01/11 09:34:55;;;;;;;4.60;0.60;;;;;;;;;;6261223;22;20375;-44
2024/01/11 09:37:23;;;;;;;5.63;0.93;;;;;;;;;;6278129;22;20015;-44
2024/01/11 09:39:51;;;;;;;5.93;0.90;;;;;;;;;;6276481;22;20023;-44
2024/01/11 09:42:19;;;;;;;5.65;0.70;;;;;;;;;;6276587;22;20015;-44
2024/01/11 09:44:47;;;;;;;7.00;0.85;;;;;;;;;;6249021;22;20019;-44
2024/01/11 09:47:17;;;;;;;4.93;1.03;;;;;;;;;;6283191;22;20067;-43
2024/01/11 09:49:45;;;;;;;6.93;0.68;;;;;;;;;;6287327;22;20445;-44
2024/01/11 09:52:16;;;;;;;6.53;0.70;;;;;;;;;;6277161;22;20042;-44
2024/01/11 09:54:45;;;;;;;7.68;0.82;;;;;;;;;;6287285;22;20019;-44
2024/01/11 09:57:13;;;;;;;4.35;0.65;;;;;;;;;;6246308;22;20027;-44
2024/01/11 09:59:41;;;;;;;5.63;0.70;;;;;;;;;;6282327;22;20092;-43
2024/01/11 10:02:10;;;;;;;7.03;0.82;;;;;;;;;;6270603;22;20015;-44
2024/01/11 10:04:38;;;;;;;8.13;1.13;;;;;;;;;;6257587;22;20389;-44
2024/01/11 10:07:06;;;;;;;7.07;0.85;;;;;;;;;;6282543;22;20090;-44
2024/01/11 10:09:36;;;;;;;6.03;0.70;;;;;;;;;;6287402;22;20026;-47
2024/01/11 10:12:04;;;;;;;8.73;0.60;;;;;;;;;;6272166;22;20019;-46
2024/01/11 10:14:33;;;;;;;6.30;0.88;;;;;;;;;;6279858;22;20470;-44
2024/01/11 10:17:02;;;;;;;5.53;0.98;;;;;;;;;;6259589;22;20023;-45
2024/01/11 10:19:30;;;;;;;12.43;1.08;;;;;;;;;;6283842;22;20012;-44
2024/01/11 10:21:59;;;;;;;4.68;0.90;;;;;;;;;;6282128;22;20456;-47
2024/01/11 10:24:27;;;;;;;4.80;0.67;;;;;;;;;;6275062;22;20082;-45
2024/01/11 10:26:58;;;;;;;7.38;1.00;;;;;;;;;;6273547;22;20025;-44
2024/01/11 10:29:29;;;;;;;6.18;0.75;;;;;;;;;;6272712;22;20030;-45
2024/01/11 10:31:57;;;;;;;7.15;0.90;;;;;;;;;;6271742;22;20077;-44
2024/01/11 10:34:25;;;;;;;5.85;1.10;;;;;;;;;;6225717;22;20275;-46
2024/01/11 10:36:53;;;;;;;7.93;1.37;;;;;;;;;;6271100;22;20023;-44
2024/01/11 10:39:25;;;;;;;5.63;0.90;;;;;;;;;;6253104;22;20011;-44
2024/01/11 10:41:53;;;;;;;4.85;0.93;;;;;;;;;;6277575;22;20019;-44
2024/01/11 10:44:22;;;;;;;4.78;0.80;;;;;;;;;;6273791;22;20537;-44
2024/01/11 10:46:50;;;;;;;8.13;0.70;;;;;;;;;;6285362;22;20068;-44
2024/01/11 10:49:19;;;;;;;7.47;1.10;;;;;;;;;;6279412;22;20114;-44
2024/01/11 10:51:50;;;;;;;7.47;1.25;;;;;;;;;;6285831;22;20019;-46
2024/01/11 10:54:19;;;;;;;8.05;0.85;;;;;;;;;;6278667;22;20019;-44
2024/01/11 10:56:48;;;;;;;6.35;0.77;;;;;;;;;;6282771;22;20516;-44
2024/01/11 10:59:16;;;;;;;6.65;0.70;;;;;;;;;;6270162;22;20479;-44
2024/01/11 11:01:46;;;;;;;7.27;0.90;;;;;;;;;;6279329;22;20046;-44
2024/01/11 11:04:15;;;;;;;6.47;0.70;;;;;;;;;;6286036;22;20090;-44
2024/01/11 11:06:44;;;;;;;4.93;0.88;;;;;;;;;;6252046;22;20355;-44
2024/01/11 11:09:14;;;;;;;5.53;0.70;;;;;;;;;;6278986;22;20054;-44
2024/01/11 11:11:42;;;;;;;5.80;0.90;;;;;;;;;;6273566;22;20300;-44
2024/01/11 11:14:10;;;;;;;5.03;0.83;;;;;;;;;;6284139;22;20427;-44
2024/01/11 11:16:38;;;;;;;5.57;0.55;;;;;;;;;;6282481;22;20029;-45
2024/01/11 11:19:08;;;;;;;6.28;1.00;;;;;;;;;;6279314;22;20454;-48
2024/01/11 11:21:42;;;;;;;6.68;1.10;;;;;;;;;;6275469;22;20057;-45
2024/01/11 11:24:13;;;;;;;4.80;1.00;;;;;;;;;;6277279;22;20019;-45
2024/01/11 11:26:40;;;;;;;6.13;1.00;;;;;;;;;;6276908;22;20431;-46
2024/01/11 11:29:09;;;;;;;6.47;1.00;;;;;;;;;;6275064;22;20080;-44
2024/01/11 11:31:38;;;;;;;7.63;1.02;;;;;;;;;;6277781;22;20853;-44
2024/01/11 11:34:06;;;;;;;6.05;0.95;;;;;;;;;;6229329;22;20018;-45
2024/01/11 11:36:35;;;;;;;8.27;1.33;;;;;;;;;;6270481;22;20509;-46
2024/01/11 11:39:03;;;;;;;5.97;0.90;;;;;;;;;;6271479;22;20015;-43
2024/01/11 11:41:31;;;;;;;4.80;0.90;;;;;;;;;;6277641;22;20019;-44
2024/01/11 11:44:01;;;;;;;5.43;0.90;;;;;;;;;;6276328;22;20042;-46
2024/01/11 11:46:31;;;;;;;5.20;0.98;;;;;;;;;;6275836;22;20019;-44
2024/01/11 11:48:59;;;;;;;7.72;0.90;;;;;;;;;;6271731;22;20061;-45
2024/01/11 11:51:27;;;;;;;5.87;0.90;;;;;;;;;;6277461;22;20073;-44
2024/01/11 11:53:58;;;;;;;4.95;0.70;;;;;;;;;;6271898;22;20094;-48
2024/01/11 11:56:26;;;;;;;7.25;1.10;;;;;;;;;;6276221;22;20050;-46
2024/01/11 11:58:54;;;;;;;5.32;0.98;;;;;;;;;;6273579;22;20344;-44
2024/01/11 12:01:23;;;;;;;3.65;0.82;;;;;;;;;;6246019;22;20446;-45
2024/01/11 12:03:51;;;;;;;9.03;1.00;;;;;;;;;;6274381;22;20012;-44
2024/01/11 12:06:20;;;;;;;4.60;0.90;;;;;;;;;;6276141;22;20012;-45
2024/01/11 12:08:48;;;;;;;3.40;0.60;;;;;;;;;;6271582;22;20450;-44
2024/01/11 12:11:20;;;;;;;4.85;0.80;;;;;;;;;;6277475;22;20015;-45
2024/01/11 12:13:49;;;;;;;7.80;1.08;;;;;;;;;;6271935;22;20080;-44
2024/01/11 12:16:16;;;;;;;4.83;0.80;;;;;;;;;;6273707;22;20023;-43
2024/01/11 12:18:44;;;;;;;4.80;0.70;;;;;;;;;;6279196;22;20022;-44
2024/01/11 12:21:12;;;;;;;5.30;0.52;;;;;;;;;;6271980;22;20019;-44
2024/01/11 12:23:40;;;;;;;5.28;0.40;;;;;;;;;;6276137;22;20069;-46
2024/01/11 12:26:12;;;;;;;5.43;0.70;;;;;;;;;;6274535;22;20015;-45
2024/01/11 12:28:43;;;;;;;8.43;1.10;;;;;;;;;;6277690;22;20019;-45
2024/01/11 12:31:14;;;;;;;3.60;0.73;;;;;;;;;;6253713;22;20535;-44
2024/01/11 12:33:46;;;;;;;3.38;0.60;;;;;;;;;;6236754;22;20191;-43
2024/01/11 12:36:14;;;;;;;4.60;0.60;;;;;;;;;;6271093;22;20015;-45
2024/01/11 12:38:47;;;;;;;4.00;0.47;;;;;;;;;;6279938;22;20015;-44
2024/01/11 12:41:20;;;;;;;3.43;0.40;;;;;;;;;;6249849;22;20015;-44
2024/01/11 12:43:49;;;;;;;5.30;0.40;;;;;;;;;;6285560;22;20030;-45
2024/01/11 12:46:17;;;;;;;4.43;0.30;;;;;;;;;;6273553;22;20019;-45
2024/01/11 12:48:45;;;;;;;4.43;0.60;;;;;;;;;;6278179;22;20015;-43
2024/01/11 12:51:13;;;;;;;3.75;0.50;;;;;;;;;;6248528;22;20588;-44
2024/01/11 12:53:49;;;;;;;3.27;0.40;;;;;;;;;;6278873;22;20019;-44
2024/01/11 12:56:17;;;;;;;4.22;0.60;;;;;;;;;;6256458;22;20019;-50
2024/01/11 12:58:46;;;;;;;4.00;0.50;;;;;;;;;;6249348;22;20076;-43
2024/01/11 13:01:16;;;;;;;4.63;0.70;;;;;;;;;;6279811;22;20036;-46
2024/01/11 13:03:45;;;;;;;5.15;0.70;;;;;;;;;;6275771;22;20486;-44
2024/01/11 13:06:15;;;;;;;3.53;0.60;;;;;;;;;;6285101;22;20019;-43
2024/01/11 13:08:43;;;;;;;5.75;0.63;;;;;;;;;;6279113;22;20016;-44
2024/01/11 13:11:13;;;;;;;3.72;0.50;;;;;;;;;;6283527;22;20011;-44
2024/01/11 13:13:42;;;;;;;4.10;0.65;;;;;;;;;;6277288;22;20015;-44
2024/01/11 13:16:14;;;;;;;4.35;0.85;;;;;;;;;;6281808;22;20017;-44
2024/01/11 13:18:43;;;;;;;6.03;1.00;;;;;;;;;;6286377;22;20022;-44
2024/01/11 13:21:13;;;;;;;4.50;0.70;;;;;;;;;;6279244;22;20133;-44
2024/01/11 13:23:41;;;;;;;4.45;1.13;;;;;;;;;;6279024;22;20011;-44
2024/01/11 13:26:09;;;;;;;4.60;0.80;;;;;;;;;;6274868;22;20026;-44
2024/01/11 13:28:37;;;;;;;4.72;0.80;;;;;;;;;;6275515;22;20026;-45
2024/01/11 13:31:05;;;;;;;5.20;0.83;;;;;;;;;;6283118;22;20021;-44
2024/01/11 13:33:33;;;;;;;5.38;0.80;;;;;;;;;;6263344;22;20015;-44
2024/01/11 13:36:02;;;;;;;3.67;0.80;;;;;;;;;;6240835;22;20884;-45
2024/01/11 13:38:30;;;;;;;5.75;1.00;;;;;;;;;;6280491;22;20205;-44
2024/01/11 13:40:58;;;;;;;8.98;1.05;;;;;;;;;;6282301;22;20043;-44
2024/01/11 13:43:25;;;;;;;5.03;1.23;;;;;;;;;;6286005;22;20019;-44
2024/01/11 13:45:54;;;;;;;6.30;0.90;;;;;;;;;;6279165;22;20334;-44
2024/01/11 13:48:22;;;;;;;11.07;1.38;;;;;;;;;;6284344;22;20350;-44
2024/01/11 13:50:49;;;;;;;6.03;1.13;;;;;;;;;;6278064;22;20196;-44
2024/01/11 13:53:19;;;;;;;7.88;1.10;;;;;;;;;;6258597;22;20037;-43
2024/01/11 13:55:47;;;;;;;4.97;1.00;;;;;;;;;;6277197;22;20446;-44
2024/01/11 13:58:15;;;;;;;5.50;0.70;;;;;;;;;;6284929;22;20019;-44
2024/01/11 14:00:43;;;;;;;4.95;0.80;;;;;;;;;;6281727;22;20025;-44
2024/01/11 14:03:11;;;;;;;4.95;1.35;;;;;;;;;;6284766;22;20446;-46
2024/01/11 14:05:39;;;;;;;8.23;1.10;;;;;;;;;;6280326;22;20015;-45
2024/01/11 14:08:07;;;;;;;4.87;0.70;;;;;;;;;;6288040;22;20015;-45
2024/01/11 14:10:38;;;;;;;6.30;0.93;;;;;;;;;;6284453;22;20049;-44
2024/01/11 14:13:06;;;;;;;4.93;0.75;;;;;;;;;;6280800;22;20023;-44
2024/01/11 14:15:34;;;;;;;3.92;0.98;;;;;;;;;;6282007;22;20157;-44
2024/01/11 14:18:03;;;;;;;5.97;1.08;;;;;;;;;;6254140;22;20342;-45
2024/01/11 14:20:33;;;;;;;6.20;0.83;;;;;;;;;;6286403;22;20043;-44
2024/01/11 14:23:01;;;;;;;6.03;1.00;;;;;;;;;;6277691;22;20026;-44
2024/01/11 14:25:30;;;;;;;5.80;0.60;;;;;;;;;;6278466;22;20039;-45
2024/01/11 14:28:01;;;;;;;4.68;0.80;;;;;;;;;;6250257;22;20019;-43
2024/01/11 14:30:29;;;;;;;3.50;0.65;;;;;;;;;;6282842;22;20034;-44
2024/01/11 14:32:56;;;;;;;5.63;1.00;;;;;;;;;;6240272;22;20110;-44
2024/01/11 14:35:24;;;;;;;3.85;0.63;;;;;;;;;;6252049;22;20098;-43
2024/01/11 14:37:53;;;;;;;8.55;0.60;;;;;;;;;;6247489;22;20019;-44
2024/01/11 14:40:21;;;;;;;3.05;0.55;;;;;;;;;;6284428;22;20022;-44
2024/01/11 14:42:51;;;;;;;7.05;1.00;;;;;;;;;;6276858;22;20015;-45
2024/01/11 14:45:20;;;;;;;3.80;0.50;;;;;;;;;;6283604;22;20065;-46
2024/01/11 14:47:48;;;;;;;4.47;0.82;;;;;;;;;;6277394;22;20102;-45